createdAt,value
2022-11-04T00:01:39.638Z,7.1
2022-11-04T00:11:39.643Z,7.1
2022-11-04T00:26:39.624Z,7.2
2022-11-04T00:31:39.672Z,7.2
2022-11-04T00:36:39.644Z,7.2
2022-11-04T00:46:39.647Z,7.3
2022-11-04T00:56:39.655Z,7.3
2022-11-04T01:06:39.672Z,7.3
2022-11-04T01:16:39.666Z,7.4
2022-11-04T01:21:39.644Z,7.4
2022-11-04T01:46:39.646Z,7.4
2022-11-04T01:51:39.642Z,7.5
2022-11-04T01:56:39.649Z,7.5
2022-11-04T02:01:39.855Z,7.5
2022-11-04T02:06:39.681Z,7.5
2022-11-04T02:16:39.654Z,7.5
2022-11-04T02:26:39.667Z,7.6
2022-11-04T02:31:39.637Z,7.6
2022-11-04T02:36:39.653Z,7.6
2022-11-04T02:41:39.652Z,7.6
2022-11-04T03:06:39.682Z,7.7
2022-11-04T03:16:39.647Z,7.7
2022-11-04T03:21:39.652Z,7.8
2022-11-04T03:26:39.702Z,7.8
2022-11-04T03:31:39.676Z,7.8
2022-11-04T03:36:39.679Z,7.8
2022-11-04T03:46:39.699Z,7.9
2022-11-04T03:51:39.669Z,7.9
2022-11-04T03:56:39.694Z,7.9
2022-11-04T04:21:39.704Z,8
2022-11-04T04:26:39.696Z,8
2022-11-04T04:36:39.697Z,8.1
2022-11-04T04:46:39.721Z,8.1
2022-11-04T04:56:39.692Z,8.2
2022-11-04T05:01:39.872Z,8.1
2022-11-04T05:11:39.734Z,8.2
2022-11-04T05:21:39.689Z,8.2
2022-11-04T05:41:39.732Z,8.3
2022-11-04T05:46:39.707Z,8.3
2022-11-04T05:56:39.707Z,8.3
2022-11-04T06:06:39.735Z,8.3
2022-11-04T06:11:39.709Z,8.4
2022-11-04T06:16:39.716Z,8.3
2022-11-04T06:26:39.738Z,8.4
2022-11-04T06:36:39.705Z,8.4
2022-11-04T06:41:42.789Z,8.4
2022-11-04T06:56:39.737Z,8.3
2022-11-04T07:01:39.841Z,8.4
2022-11-04T07:11:39.716Z,8.4
2022-11-04T07:16:39.765Z,8.4
2022-11-04T07:21:39.744Z,8.4
2022-11-04T07:31:39.743Z,8.4
2022-11-04T07:41:39.764Z,8.4
2022-11-04T07:46:39.739Z,8.3
2022-11-04T07:56:39.759Z,8.4
2022-11-04T08:16:39.765Z,8.4
2022-11-04T08:26:39.764Z,8.3
2022-11-04T08:36:39.760Z,8.3
2022-11-04T08:41:39.731Z,8.3
2022-11-04T08:46:39.759Z,8.3
2022-11-04T08:56:39.768Z,8.3
2022-11-04T09:06:39.960Z,8.3
2022-11-04T09:11:39.763Z,8.3
2022-11-04T09:31:39.845Z,8.2
2022-11-04T09:36:39.751Z,8.2
2022-11-04T09:46:39.733Z,8.1
2022-11-04T09:51:53.649Z,8.2
2022-11-04T10:01:39.871Z,8
2022-11-04T10:06:39.745Z,8.2
2022-11-04T10:16:39.840Z,8.1
2022-11-04T10:21:39.746Z,8.1
2022-11-04T10:26:39.742Z,8.1
2022-11-04T10:51:39.866Z,8
2022-11-04T11:01:39.908Z,8
2022-11-04T11:11:39.768Z,8
2022-11-04T11:21:39.767Z,8
2022-11-04T11:31:39.795Z,8
2022-11-04T11:41:44.558Z,8
2022-11-04T11:46:39.760Z,7.8
2022-11-04T12:11:39.743Z,8
2022-11-04T12:16:39.759Z,8
2022-11-04T12:21:39.777Z,8
2022-11-04T12:31:39.776Z,8
2022-11-04T12:36:43.715Z,8
2022-11-04T12:42:14.407Z,8
2022-11-04T12:46:39.762Z,8
2022-11-04T12:56:39.870Z,8
2022-11-04T13:01:39.912Z,8
2022-11-04T13:26:39.789Z,7.9
2022-11-04T13:31:39.781Z,7.9
2022-11-04T13:36:39.765Z,7.9
2022-11-04T13:41:39.841Z,7.9
2022-11-04T13:51:39.779Z,7.8
2022-11-04T13:56:39.769Z,7.8
2022-11-04T14:01:39.858Z,7.8
2022-11-04T14:11:39.778Z,7.8
2022-11-04T14:16:39.756Z,7.7
2022-11-04T14:21:39.801Z,7.8
2022-11-04T14:26:39.792Z,7.7
2022-11-04T14:46:39.898Z,7.7
2022-11-04T14:51:39.795Z,7.7
2022-11-04T15:01:40.035Z,7.7
2022-11-04T15:11:39.800Z,7.7
2022-11-04T15:21:39.787Z,7.7
2022-11-04T15:26:39.778Z,7.7
2022-11-04T15:36:39.785Z,7.7
2022-11-04T15:41:39.777Z,7.7
2022-11-04T16:01:39.973Z,7.5
2022-11-04T16:06:39.793Z,7.5
2022-11-04T16:16:39.787Z,7.5
2022-11-04T16:21:39.809Z,7.5
2022-11-04T16:31:39.781Z,7.4
2022-11-04T16:36:39.774Z,7.5
2022-11-04T16:46:39.811Z,7.5
2022-11-04T16:51:39.786Z,7.5
2022-11-04T16:56:39.791Z,7.5
2022-11-04T17:21:39.806Z,7.5
2022-11-04T17:31:39.779Z,7.5
2022-11-04T17:41:39.805Z,7.4
2022-11-04T17:51:39.773Z,7.4
2022-11-04T17:56:39.786Z,7.4
2022-11-04T18:06:39.929Z,7.4
2022-11-04T18:16:39.770Z,7.5
2022-11-04T18:21:39.776Z,7.5
2022-11-04T18:41:39.811Z,7.5
2022-11-04T18:46:39.845Z,7.5
2022-11-04T18:56:39.792Z,7.4
2022-11-04T19:06:39.817Z,7.4
2022-11-04T19:11:39.787Z,7.4
2022-11-04T19:16:39.790Z,7.4
2022-11-04T19:21:39.795Z,7.4
2022-11-04T19:31:39.800Z,7.4
2022-11-04T19:36:39.800Z,7.4
2022-11-04T20:01:39.911Z,7.5
2022-11-04T20:06:39.791Z,7.5
2022-11-04T20:11:39.799Z,7.4
2022-11-04T20:21:39.821Z,7.5
2022-11-04T20:26:39.840Z,7.5
2022-11-04T20:36:39.786Z,7.5
2022-11-04T20:41:39.822Z,7.5
2022-11-04T20:46:39.789Z,7.5
2022-11-04T20:56:39.791Z,7.5
2022-11-04T21:16:39.819Z,7.5
2022-11-04T21:26:39.781Z,7.5
2022-11-04T21:31:39.797Z,7.5
2022-11-04T21:41:39.920Z,7.5
2022-11-04T21:51:39.806Z,7.5
2022-11-04T22:01:40.025Z,7.5
2022-11-04T22:06:39.800Z,7.5
2022-11-04T22:16:39.794Z,7.5
2022-11-04T22:36:39.871Z,7.5
2022-11-04T22:46:39.810Z,7.5
2022-11-04T22:56:39.838Z,7.5
2022-11-04T23:06:39.877Z,7.5
2022-11-04T23:16:39.836Z,7.5
2022-11-04T23:21:39.843Z,7.5
2022-11-04T23:31:39.807Z,7.5
2022-11-04T23:36:39.860Z,7.5
2022-11-04T23:51:39.841Z,7.6
